sensor_id;sensor_type;location;lat;lon;timestamp;P1;durP1;ratioP1;P2;durP2;ratioP2
10731;SDS011;5417;42.686;23.244;2023-02-28T00:01:33;12.60;;;11.30;;
10731;SDS011;5417;42.686;23.244;2023-02-28T00:04:01;12.13;;;10.80;;
10731;SDS011;5417;42.686;23.244;2023-02-28T00:06:30;11.97;;;10.77;;
10731;SDS011;5417;42.686;23.244;2023-02-28T00:08:57;12.67;;;11.40;;
10731;SDS011;5417;42.686;23.244;2023-02-28T00:11:25;14.37;;;11.23;;
10731;SDS011;5417;42.686;23.244;2023-02-28T00:13:58;12.47;;;11.17;;
10731;SDS011;5417;42.686;23.244;2023-02-28T00:16:26;12.67;;;11.37;;
10731;SDS011;5417;42.686;23.244;2023-02-28T00:18:53;13.13;;;11.83;;
10731;SDS011;5417;42.686;23.244;2023-02-28T00:23:51;12.83;;;10.77;;
10731;SDS011;5417;42.686;23.244;2023-02-28T00:26:18;11.63;;;10.43;;
10731;SDS011;5417;42.686;23.244;2023-02-28T00:28:46;11.03;;;9.60;;
10731;SDS011;5417;42.686;23.244;2023-02-28T00:31:13;10.80;;;9.80;;
10731;SDS011;5417;42.686;23.244;2023-02-28T00:33:40;10.03;;;9.13;;
10731;SDS011;5417;42.686;23.244;2023-02-28T00:36:09;10.40;;;9.40;;
10731;SDS011;5417;42.686;23.244;2023-02-28T00:41:08;10.70;;;9.60;;
10731;SDS011;5417;42.686;23.244;2023-02-28T00:43:36;11.67;;;10.33;;
10731;SDS011;5417;42.686;23.244;2023-02-28T00:46:05;12.07;;;10.87;;
10731;SDS011;5417;42.686;23.244;2023-02-28T00:48:33;14.87;;;12.33;;
10731;SDS011;5417;42.686;23.244;2023-02-28T00:51:00;18.73;;;14.87;;
10731;SDS011;5417;42.686;23.244;2023-02-28T00:53:27;19.60;;;14.37;;
10731;SDS011;5417;42.686;23.244;2023-02-28T00:55:58;16.27;;;14.27;;
10731;SDS011;5417;42.686;23.244;2023-02-28T00:58:27;15.63;;;13.77;;
10731;SDS011;5417;42.686;23.244;2023-02-28T01:00:54;16.00;;;13.87;;
10731;SDS011;5417;42.686;23.244;2023-02-28T01:03:22;19.63;;;14.47;;
10731;SDS011;5417;42.686;23.244;2023-02-28T01:05:49;19.27;;;14.70;;
10731;SDS011;5417;42.686;23.244;2023-02-28T01:08:18;18.23;;;14.03;;
10731;SDS011;5417;42.686;23.244;2023-02-28T01:10:45;18.40;;;14.03;;
10731;SDS011;5417;42.686;23.244;2023-02-28T01:13:19;24.37;;;14.67;;
10731;SDS011;5417;42.686;23.244;2023-02-28T01:15:50;19.03;;;14.77;;
10731;SDS011;5417;42.686;23.244;2023-02-28T01:18:19;21.40;;;15.17;;
10731;SDS011;5417;42.686;23.244;2023-02-28T01:20:47;19.67;;;15.60;;
10731;SDS011;5417;42.686;23.244;2023-02-28T01:23:18;22.77;;;15.53;;
10731;SDS011;5417;42.686;23.244;2023-02-28T01:25:46;22.93;;;15.20;;
10731;SDS011;5417;42.686;23.244;2023-02-28T01:28:13;24.07;;;15.20;;
10731;SDS011;5417;42.686;23.244;2023-02-28T01:30:46;18.57;;;14.90;;
10731;SDS011;5417;42.686;23.244;2023-02-28T01:33:15;17.03;;;12.93;;
10731;SDS011;5417;42.686;23.244;2023-02-28T01:35:42;18.67;;;13.43;;
10731;SDS011;5417;42.686;23.244;2023-02-28T01:38:09;19.67;;;14.10;;
10731;SDS011;5417;42.686;23.244;2023-02-28T01:40:36;18.33;;;13.57;;
10731;SDS011;5417;42.686;23.244;2023-02-28T01:43:04;17.83;;;12.97;;
10731;SDS011;5417;42.686;23.244;2023-02-28T01:45:43;19.60;;;14.00;;
10731;SDS011;5417;42.686;23.244;2023-02-28T01:48:10;19.10;;;14.73;;
10731;SDS011;5417;42.686;23.244;2023-02-28T01:50:41;23.80;;;14.90;;
10731;SDS011;5417;42.686;23.244;2023-02-28T01:53:10;18.67;;;14.20;;
10731;SDS011;5417;42.686;23.244;2023-02-28T01:55:42;20.37;;;14.60;;
10731;SDS011;5417;42.686;23.244;2023-02-28T01:58:14;21.97;;;14.37;;
10731;SDS011;5417;42.686;23.244;2023-02-28T02:03:12;23.00;;;16.83;;
10731;SDS011;5417;42.686;23.244;2023-02-28T02:05:45;25.70;;;16.83;;
10731;SDS011;5417;42.686;23.244;2023-02-28T02:08:13;23.73;;;16.90;;
10731;SDS011;5417;42.686;23.244;2023-02-28T02:10:44;25.33;;;16.70;;
10731;SDS011;5417;42.686;23.244;2023-02-28T02:13:19;24.03;;;16.40;;
10731;SDS011;5417;42.686;23.244;2023-02-28T02:15:58;26.10;;;17.13;;
10731;SDS011;5417;42.686;23.244;2023-02-28T02:18:32;32.23;;;17.80;;
10731;SDS011;5417;42.686;23.244;2023-02-28T02:27:43;58.20;;;18.20;;
10731;SDS011;5417;42.686;23.244;2023-02-28T02:33:38;71.50;;;20.73;;
10731;SDS011;5417;42.686;23.244;2023-02-28T02:36:46;54.10;;;17.47;;
10731;SDS011;5417;42.686;23.244;2023-02-28T02:39:19;64.23;;;20.20;;
10731;SDS011;5417;42.686;23.244;2023-02-28T02:41:58;41.53;;;19.20;;
10731;SDS011;5417;42.686;23.244;2023-02-28T02:44:28;30.27;;;17.80;;
10731;SDS011;5417;42.686;23.244;2023-02-28T02:47:01;32.23;;;20.07;;
10731;SDS011;5417;42.686;23.244;2023-02-28T02:49:33;32.23;;;19.77;;
10731;SDS011;5417;42.686;23.244;2023-02-28T02:52:05;57.37;;;18.90;;
10731;SDS011;5417;42.686;23.244;2023-02-28T02:54:41;44.20;;;17.87;;
10731;SDS011;5417;42.686;23.244;2023-02-28T02:57:13;52.13;;;17.27;;
10731;SDS011;5417;42.686;23.244;2023-02-28T02:59:46;40.20;;;16.70;;
10731;SDS011;5417;42.686;23.244;2023-02-28T03:02:16;19.43;;;14.57;;
10731;SDS011;5417;42.686;23.244;2023-02-28T03:04:48;26.33;;;17.13;;
10731;SDS011;5417;42.686;23.244;2023-02-28T03:07:20;26.13;;;17.37;;
10731;SDS011;5417;42.686;23.244;2023-02-28T03:09:51;33.07;;;17.07;;
10731;SDS011;5417;42.686;23.244;2023-02-28T03:12:27;22.80;;;15.90;;
10731;SDS011;5417;42.686;23.244;2023-02-28T03:15:08;25.93;;;17.07;;
10731;SDS011;5417;42.686;23.244;2023-02-28T03:17:48;57.17;;;16.07;;
10731;SDS011;5417;42.686;23.244;2023-02-28T03:20:35;25.27;;;15.27;;
10731;SDS011;5417;42.686;23.244;2023-02-28T03:23:12;48.50;;;15.07;;
10731;SDS011;5417;42.686;23.244;2023-02-28T03:25:46;28.20;;;22.07;;
10731;SDS011;5417;42.686;23.244;2023-02-28T03:28:24;27.50;;;14.80;;
10731;SDS011;5417;42.686;23.244;2023-02-28T03:30:59;19.27;;;13.87;;
10731;SDS011;5417;42.686;23.244;2023-02-28T03:33:30;19.77;;;14.50;;
10731;SDS011;5417;42.686;23.244;2023-02-28T03:36:04;21.27;;;14.73;;
10731;SDS011;5417;42.686;23.244;2023-02-28T03:44:01;17.50;;;13.07;;
10731;SDS011;5417;42.686;23.244;2023-02-28T03:46:33;18.53;;;14.03;;
10731;SDS011;5417;42.686;23.244;2023-02-28T03:49:08;26.20;;;14.17;;
10731;SDS011;5417;42.686;23.244;2023-02-28T03:51:48;28.57;;;15.93;;
10731;SDS011;5417;42.686;23.244;2023-02-28T03:54:21;21.33;;;15.73;;
10731;SDS011;5417;42.686;23.244;2023-02-28T03:56:57;25.03;;;16.53;;
10731;SDS011;5417;42.686;23.244;2023-02-28T03:59:30;46.03;;;18.53;;
10731;SDS011;5417;42.686;23.244;2023-02-28T04:02:02;31.27;;;18.70;;
10731;SDS011;5417;42.686;23.244;2023-02-28T04:04:29;37.20;;;18.97;;
10731;SDS011;5417;42.686;23.244;2023-02-28T04:07:00;30.60;;;19.37;;
10731;SDS011;5417;42.686;23.244;2023-02-28T04:09:30;51.07;;;18.90;;
10731;SDS011;5417;42.686;23.244;2023-02-28T04:11:57;43.07;;;16.23;;
10731;SDS011;5417;42.686;23.244;2023-02-28T04:14:25;38.73;;;16.30;;
10731;SDS011;5417;42.686;23.244;2023-02-28T04:16:53;41.77;;;16.17;;
10731;SDS011;5417;42.686;23.244;2023-02-28T04:19:21;48.97;;;16.60;;
10731;SDS011;5417;42.686;23.244;2023-02-28T04:21:49;26.17;;;16.23;;
10731;SDS011;5417;42.686;23.244;2023-02-28T04:24:19;25.93;;;17.07;;
10731;SDS011;5417;42.686;23.244;2023-02-28T04:26:49;44.03;;;17.30;;
10731;SDS011;5417;42.686;23.244;2023-02-28T04:29:19;32.57;;;16.60;;
10731;SDS011;5417;42.686;23.244;2023-02-28T04:31:48;32.07;;;16.63;;
10731;SDS011;5417;42.686;23.244;2023-02-28T04:34:15;30.97;;;15.73;;
10731;SDS011;5417;42.686;23.244;2023-02-28T04:36:44;35.03;;;16.47;;
10731;SDS011;5417;42.686;23.244;2023-02-28T04:39:11;31.50;;;17.87;;
10731;SDS011;5417;42.686;23.244;2023-02-28T04:41:38;37.63;;;17.17;;
10731;SDS011;5417;42.686;23.244;2023-02-28T04:44:10;29.50;;;17.90;;
10731;SDS011;5417;42.686;23.244;2023-02-28T04:49:07;30.23;;;17.60;;
10731;SDS011;5417;42.686;23.244;2023-02-28T04:51:35;32.73;;;18.70;;
10731;SDS011;5417;42.686;23.244;2023-02-28T04:56:41;29.60;;;18.53;;
10731;SDS011;5417;42.686;23.244;2023-02-28T04:59:10;39.90;;;19.73;;
10731;SDS011;5417;42.686;23.244;2023-02-28T05:01:37;27.53;;;18.57;;
10731;SDS011;5417;42.686;23.244;2023-02-28T05:04:05;48.87;;;19.40;;
10731;SDS011;5417;42.686;23.244;2023-02-28T05:06:32;28.23;;;17.77;;
10731;SDS011;5417;42.686;23.244;2023-02-28T05:09:00;31.20;;;17.63;;
10731;SDS011;5417;42.686;23.244;2023-02-28T05:11:28;36.33;;;19.03;;
10731;SDS011;5417;42.686;23.244;2023-02-28T05:14:00;30.33;;;18.10;;
10731;SDS011;5417;42.686;23.244;2023-02-28T05:16:48;38.53;;;18.53;;
10731;SDS011;5417;42.686;23.244;2023-02-28T05:19:15;32.70;;;20.30;;
10731;SDS011;5417;42.686;23.244;2023-02-28T05:21:57;30.23;;;20.30;;
10731;SDS011;5417;42.686;23.244;2023-02-28T05:24:30;31.07;;;19.47;;
10731;SDS011;5417;42.686;23.244;2023-02-28T05:26:58;45.27;;;20.97;;
10731;SDS011;5417;42.686;23.244;2023-02-28T05:29:28;32.47;;;19.30;;
10731;SDS011;5417;42.686;23.244;2023-02-28T05:31:57;32.67;;;19.10;;
10731;SDS011;5417;42.686;23.244;2023-02-28T05:34:24;33.63;;;18.70;;
10731;SDS011;5417;42.686;23.244;2023-02-28T05:36:52;34.97;;;20.00;;
10731;SDS011;5417;42.686;23.244;2023-02-28T05:39:19;33.27;;;18.40;;
10731;SDS011;5417;42.686;23.244;2023-02-28T05:41:47;35.37;;;19.63;;
10731;SDS011;5417;42.686;23.244;2023-02-28T05:44:16;32.40;;;18.70;;
10731;SDS011;5417;42.686;23.244;2023-02-28T05:46:43;36.67;;;19.10;;
10731;SDS011;5417;42.686;23.244;2023-02-28T05:49:12;45.00;;;20.40;;
10731;SDS011;5417;42.686;23.244;2023-02-28T05:51:40;57.73;;;21.17;;
10731;SDS011;5417;42.686;23.244;2023-02-28T05:54:07;42.63;;;20.43;;
10731;SDS011;5417;42.686;23.244;2023-02-28T05:56:35;33.57;;;20.27;;
10731;SDS011;5417;42.686;23.244;2023-02-28T05:59:04;41.27;;;20.50;;
10731;SDS011;5417;42.686;23.244;2023-02-28T06:01:32;47.07;;;19.90;;
10731;SDS011;5417;42.686;23.244;2023-02-28T06:04:01;63.90;;;21.43;;
10731;SDS011;5417;42.686;23.244;2023-02-28T06:06:34;46.93;;;20.03;;
10731;SDS011;5417;42.686;23.244;2023-02-28T06:09:02;47.43;;;20.20;;
10731;SDS011;5417;42.686;23.244;2023-02-28T06:11:29;67.07;;;21.83;;
10731;SDS011;5417;42.686;23.244;2023-02-28T06:13:57;50.97;;;20.43;;
10731;SDS011;5417;42.686;23.244;2023-02-28T06:16:26;34.57;;;18.97;;
10731;SDS011;5417;42.686;23.244;2023-02-28T06:18:54;43.77;;;20.93;;
10731;SDS011;5417;42.686;23.244;2023-02-28T06:21:22;45.73;;;20.50;;
10731;SDS011;5417;42.686;23.244;2023-02-28T06:23:50;47.23;;;20.47;;
10731;SDS011;5417;42.686;23.244;2023-02-28T06:26:18;47.17;;;21.37;;
10731;SDS011;5417;42.686;23.244;2023-02-28T06:28:45;38.23;;;19.27;;
10731;SDS011;5417;42.686;23.244;2023-02-28T06:31:13;52.47;;;21.47;;
10731;SDS011;5417;42.686;23.244;2023-02-28T06:33:43;38.90;;;20.63;;
10731;SDS011;5417;42.686;23.244;2023-02-28T06:36:12;45.83;;;20.80;;
10731;SDS011;5417;42.686;23.244;2023-02-28T06:38:39;46.30;;;21.50;;
10731;SDS011;5417;42.686;23.244;2023-02-28T06:41:08;48.43;;;20.23;;
10731;SDS011;5417;42.686;23.244;2023-02-28T06:43:37;37.30;;;20.60;;
10731;SDS011;5417;42.686;23.244;2023-02-28T06:46:06;33.80;;;20.77;;
10731;SDS011;5417;42.686;23.244;2023-02-28T06:48:35;34.13;;;22.30;;
10731;SDS011;5417;42.686;23.244;2023-02-28T06:51:02;33.67;;;21.23;;
10731;SDS011;5417;42.686;23.244;2023-02-28T06:53:30;41.10;;;22.80;;
10731;SDS011;5417;42.686;23.244;2023-02-28T06:55:57;34.93;;;21.57;;
10731;SDS011;5417;42.686;23.244;2023-02-28T06:58:26;44.80;;;23.00;;
10731;SDS011;5417;42.686;23.244;2023-02-28T07:00:53;36.97;;;22.03;;
10731;SDS011;5417;42.686;23.244;2023-02-28T07:03:20;36.37;;;21.63;;
10731;SDS011;5417;42.686;23.244;2023-02-28T07:05:47;43.47;;;22.83;;
10731;SDS011;5417;42.686;23.244;2023-02-28T07:08:14;38.23;;;23.53;;
10731;SDS011;5417;42.686;23.244;2023-02-28T07:10:41;35.63;;;23.17;;
10731;SDS011;5417;42.686;23.244;2023-02-28T07:13:12;40.03;;;22.63;;
10731;SDS011;5417;42.686;23.244;2023-02-28T07:15:41;39.33;;;23.37;;
10731;SDS011;5417;42.686;23.244;2023-02-28T07:18:07;44.23;;;23.87;;
10731;SDS011;5417;42.686;23.244;2023-02-28T07:20:35;39.03;;;22.90;;
10731;SDS011;5417;42.686;23.244;2023-02-28T07:23:02;40.47;;;23.43;;
10731;SDS011;5417;42.686;23.244;2023-02-28T07:25:29;45.23;;;24.73;;
10731;SDS011;5417;42.686;23.244;2023-02-28T07:27:56;37.50;;;22.77;;
10731;SDS011;5417;42.686;23.244;2023-02-28T07:30:24;38.23;;;23.80;;
10731;SDS011;5417;42.686;23.244;2023-02-28T07:33:03;41.93;;;23.30;;
10731;SDS011;5417;42.686;23.244;2023-02-28T07:35:30;38.20;;;22.80;;
10731;SDS011;5417;42.686;23.244;2023-02-28T07:37:57;38.00;;;23.90;;
10731;SDS011;5417;42.686;23.244;2023-02-28T07:40:25;46.17;;;23.23;;
10731;SDS011;5417;42.686;23.244;2023-02-28T07:42:52;39.23;;;22.17;;
10731;SDS011;5417;42.686;23.244;2023-02-28T07:45:20;39.60;;;22.50;;
10731;SDS011;5417;42.686;23.244;2023-02-28T07:47:47;40.17;;;22.10;;
10731;SDS011;5417;42.686;23.244;2023-02-28T07:50:19;34.77;;;20.53;;
10731;SDS011;5417;42.686;23.244;2023-02-28T07:52:48;40.57;;;22.47;;
10731;SDS011;5417;42.686;23.244;2023-02-28T07:55:17;43.30;;;24.63;;
10731;SDS011;5417;42.686;23.244;2023-02-28T07:57:46;43.07;;;24.37;;
10731;SDS011;5417;42.686;23.244;2023-02-28T08:00:14;39.93;;;22.37;;
10731;SDS011;5417;42.686;23.244;2023-02-28T08:02:42;40.70;;;22.80;;
10731;SDS011;5417;42.686;23.244;2023-02-28T08:05:11;41.10;;;24.43;;
10731;SDS011;5417;42.686;23.244;2023-02-28T08:07:42;42.60;;;24.00;;
10731;SDS011;5417;42.686;23.244;2023-02-28T08:10:11;45.93;;;24.83;;
10731;SDS011;5417;42.686;23.244;2023-02-28T08:12:40;38.87;;;23.70;;
10731;SDS011;5417;42.686;23.244;2023-02-28T08:15:08;42.13;;;24.73;;
10731;SDS011;5417;42.686;23.244;2023-02-28T08:17:37;49.80;;;26.47;;
10731;SDS011;5417;42.686;23.244;2023-02-28T08:20:11;46.47;;;25.27;;
10731;SDS011;5417;42.686;23.244;2023-02-28T08:22:46;49.30;;;27.63;;
10731;SDS011;5417;42.686;23.244;2023-02-28T08:25:15;42.87;;;26.27;;
10731;SDS011;5417;42.686;23.244;2023-02-28T08:30:24;44.67;;;27.67;;
10731;SDS011;5417;42.686;23.244;2023-02-28T08:32:53;41.23;;;25.83;;
10731;SDS011;5417;42.686;23.244;2023-02-28T08:35:22;39.73;;;25.60;;
10731;SDS011;5417;42.686;23.244;2023-02-28T08:37:52;42.50;;;26.10;;
10731;SDS011;5417;42.686;23.244;2023-02-28T08:40:21;44.03;;;27.27;;
10731;SDS011;5417;42.686;23.244;2023-02-28T08:42:51;47.97;;;27.70;;
10731;SDS011;5417;42.686;23.244;2023-02-28T08:45:25;44.13;;;26.67;;
10731;SDS011;5417;42.686;23.244;2023-02-28T08:47:54;43.63;;;26.10;;
10731;SDS011;5417;42.686;23.244;2023-02-28T08:50:24;40.70;;;25.20;;
10731;SDS011;5417;42.686;23.244;2023-02-28T08:52:57;42.60;;;25.93;;
10731;SDS011;5417;42.686;23.244;2023-02-28T08:55:31;43.83;;;26.60;;
10731;SDS011;5417;42.686;23.244;2023-02-28T08:58:00;47.67;;;26.60;;
10731;SDS011;5417;42.686;23.244;2023-02-28T09:00:29;49.77;;;25.63;;
10731;SDS011;5417;42.686;23.244;2023-02-28T09:02:58;42.60;;;25.60;;
10731;SDS011;5417;42.686;23.244;2023-02-28T09:05:28;43.60;;;26.13;;
10731;SDS011;5417;42.686;23.244;2023-02-28T09:07:59;44.47;;;25.27;;
10731;SDS011;5417;42.686;23.244;2023-02-28T09:10:29;42.77;;;26.33;;
10731;SDS011;5417;42.686;23.244;2023-02-28T09:13:00;39.73;;;24.33;;
10731;SDS011;5417;42.686;23.244;2023-02-28T09:15:30;43.60;;;25.80;;
10731;SDS011;5417;42.686;23.244;2023-02-28T09:17:59;44.40;;;26.97;;
10731;SDS011;5417;42.686;23.244;2023-02-28T09:20:26;38.70;;;25.40;;
10731;SDS011;5417;42.686;23.244;2023-02-28T09:22:53;40.17;;;24.23;;
10731;SDS011;5417;42.686;23.244;2023-02-28T09:25:21;46.90;;;28.03;;
10731;SDS011;5417;42.686;23.244;2023-02-28T09:27:49;44.00;;;26.43;;
10731;SDS011;5417;42.686;23.244;2023-02-28T09:30:16;42.50;;;27.00;;
10731;SDS011;5417;42.686;23.244;2023-02-28T09:32:43;43.87;;;27.80;;
10731;SDS011;5417;42.686;23.244;2023-02-28T09:35:20;43.50;;;27.00;;
10731;SDS011;5417;42.686;23.244;2023-02-28T09:37:48;45.30;;;26.83;;
10731;SDS011;5417;42.686;23.244;2023-02-28T09:40:17;42.50;;;26.50;;
10731;SDS011;5417;42.686;23.244;2023-02-28T09:42:47;45.40;;;25.93;;
10731;SDS011;5417;42.686;23.244;2023-02-28T09:45:19;42.30;;;25.37;;
10731;SDS011;5417;42.686;23.244;2023-02-28T09:47:51;39.73;;;26.57;;
10731;SDS011;5417;42.686;23.244;2023-02-28T09:50:30;46.43;;;27.23;;
10731;SDS011;5417;42.686;23.244;2023-02-28T09:53:05;44.87;;;27.10;;
10731;SDS011;5417;42.686;23.244;2023-02-28T09:55:42;46.93;;;28.13;;
10731;SDS011;5417;42.686;23.244;2023-02-28T09:58:16;42.97;;;26.47;;
10731;SDS011;5417;42.686;23.244;2023-02-28T10:00:47;41.93;;;27.63;;
10731;SDS011;5417;42.686;23.244;2023-02-28T10:03:27;39.30;;;25.87;;
10731;SDS011;5417;42.686;23.244;2023-02-28T10:05:59;45.20;;;27.43;;
10731;SDS011;5417;42.686;23.244;2023-02-28T10:08:32;44.60;;;28.33;;
10731;SDS011;5417;42.686;23.244;2023-02-28T10:11:07;42.50;;;26.57;;
10731;SDS011;5417;42.686;23.244;2023-02-28T10:13:39;42.30;;;27.90;;
10731;SDS011;5417;42.686;23.244;2023-02-28T10:16:16;42.33;;;27.30;;
10731;SDS011;5417;42.686;23.244;2023-02-28T10:18:50;40.80;;;26.00;;
10731;SDS011;5417;42.686;23.244;2023-02-28T10:21:21;41.03;;;27.83;;
10731;SDS011;5417;42.686;23.244;2023-02-28T10:23:53;39.00;;;27.67;;
10731;SDS011;5417;42.686;23.244;2023-02-28T10:26:28;38.00;;;27.33;;
10731;SDS011;5417;42.686;23.244;2023-02-28T10:29:00;35.53;;;25.80;;
10731;SDS011;5417;42.686;23.244;2023-02-28T10:31:27;42.97;;;27.57;;
10731;SDS011;5417;42.686;23.244;2023-02-28T10:33:55;35.77;;;26.63;;
10731;SDS011;5417;42.686;23.244;2023-02-28T10:36:24;38.20;;;25.97;;
10731;SDS011;5417;42.686;23.244;2023-02-28T10:38:53;39.80;;;26.87;;
10731;SDS011;5417;42.686;23.244;2023-02-28T10:41:27;37.50;;;25.60;;
10731;SDS011;5417;42.686;23.244;2023-02-28T10:44:18;40.90;;;25.63;;
10731;SDS011;5417;42.686;23.244;2023-02-28T10:46:47;31.00;;;24.37;;
10731;SDS011;5417;42.686;23.244;2023-02-28T10:49:17;35.97;;;23.63;;
10731;SDS011;5417;42.686;23.244;2023-02-28T10:51:47;30.00;;;23.27;;
10731;SDS011;5417;42.686;23.244;2023-02-28T10:54:19;26.77;;;19.60;;
10731;SDS011;5417;42.686;23.244;2023-02-28T10:59:36;27.37;;;21.63;;
10731;SDS011;5417;42.686;23.244;2023-02-28T11:02:11;24.87;;;17.20;;
10731;SDS011;5417;42.686;23.244;2023-02-28T11:04:56;20.77;;;13.50;;
10731;SDS011;5417;42.686;23.244;2023-02-28T11:07:26;21.50;;;11.10;;
10731;SDS011;5417;42.686;23.244;2023-02-28T11:09:56;15.23;;;10.57;;
10731;SDS011;5417;42.686;23.244;2023-02-28T11:12:25;20.63;;;11.30;;
10731;SDS011;5417;42.686;23.244;2023-02-28T11:15:00;15.73;;;10.53;;
10731;SDS011;5417;42.686;23.244;2023-02-28T11:17:31;19.23;;;11.80;;
10731;SDS011;5417;42.686;23.244;2023-02-28T11:20:00;16.87;;;10.23;;
10731;SDS011;5417;42.686;23.244;2023-02-28T11:22:32;16.20;;;10.27;;
10731;SDS011;5417;42.686;23.244;2023-02-28T11:25:06;15.47;;;10.37;;
10731;SDS011;5417;42.686;23.244;2023-02-28T11:27:44;19.97;;;11.00;;
10731;SDS011;5417;42.686;23.244;2023-02-28T11:30:30;15.43;;;10.67;;
10731;SDS011;5417;42.686;23.244;2023-02-28T11:33:00;19.00;;;11.00;;
10731;SDS011;5417;42.686;23.244;2023-02-28T11:35:29;16.43;;;10.70;;
10731;SDS011;5417;42.686;23.244;2023-02-28T11:37:59;19.73;;;10.77;;
10731;SDS011;5417;42.686;23.244;2023-02-28T11:40:31;18.47;;;11.20;;
10731;SDS011;5417;42.686;23.244;2023-02-28T11:43:10;17.63;;;10.77;;
10731;SDS011;5417;42.686;23.244;2023-02-28T11:45:58;15.33;;;11.23;;
10731;SDS011;5417;42.686;23.244;2023-02-28T11:48:34;19.13;;;10.63;;
10731;SDS011;5417;42.686;23.244;2023-02-28T11:51:12;20.17;;;11.90;;
10731;SDS011;5417;42.686;23.244;2023-02-28T11:53:50;18.10;;;11.37;;
10731;SDS011;5417;42.686;23.244;2023-02-28T11:56:36;14.07;;;10.60;;
10731;SDS011;5417;42.686;23.244;2023-02-28T11:59:21;19.47;;;12.10;;
10731;SDS011;5417;42.686;23.244;2023-02-28T12:05:10;19.47;;;11.50;;
10731;SDS011;5417;42.686;23.244;2023-02-28T12:07:47;15.37;;;10.60;;
10731;SDS011;5417;42.686;23.244;2023-02-28T12:10:23;20.43;;;12.40;;
10731;SDS011;5417;42.686;23.244;2023-02-28T12:13:01;18.07;;;11.40;;
10731;SDS011;5417;42.686;23.244;2023-02-28T12:15:52;17.10;;;11.40;;
10731;SDS011;5417;42.686;23.244;2023-02-28T12:18:47;17.97;;;11.73;;
10731;SDS011;5417;42.686;23.244;2023-02-28T12:21:27;22.40;;;12.60;;
10731;SDS011;5417;42.686;23.244;2023-02-28T12:27:05;16.67;;;12.23;;
10731;SDS011;5417;42.686;23.244;2023-02-28T12:29:40;22.70;;;11.93;;
10731;SDS011;5417;42.686;23.244;2023-02-28T12:32:14;13.73;;;12.30;;
10731;SDS011;5417;42.686;23.244;2023-02-28T12:34:49;24.37;;;11.67;;
10731;SDS011;5417;42.686;23.244;2023-02-28T12:37:22;15.37;;;11.80;;
10731;SDS011;5417;42.686;23.244;2023-02-28T12:39:55;15.67;;;11.10;;
10731;SDS011;5417;42.686;23.244;2023-02-28T12:42:38;20.00;;;11.70;;
10731;SDS011;5417;42.686;23.244;2023-02-28T12:45:08;17.07;;;11.03;;
10731;SDS011;5417;42.686;23.244;2023-02-28T12:47:40;19.30;;;11.17;;
10731;SDS011;5417;42.686;23.244;2023-02-28T12:50:12;18.33;;;10.90;;
10731;SDS011;5417;42.686;23.244;2023-02-28T12:52:46;13.47;;;11.33;;
10731;SDS011;5417;42.686;23.244;2023-02-28T12:55:20;14.30;;;11.33;;
10731;SDS011;5417;42.686;23.244;2023-02-28T12:57:58;17.77;;;11.30;;
10731;SDS011;5417;42.686;23.244;2023-02-28T13:00:35;18.70;;;10.73;;
10731;SDS011;5417;42.686;23.244;2023-02-28T13:03:21;17.10;;;11.27;;
10731;SDS011;5417;42.686;23.244;2023-02-28T13:06:16;16.33;;;10.97;;
10731;SDS011;5417;42.686;23.244;2023-02-28T13:09:04;15.63;;;9.90;;
10731;SDS011;5417;42.686;23.244;2023-02-28T13:11:43;16.43;;;10.00;;
10731;SDS011;5417;42.686;23.244;2023-02-28T13:14:26;17.23;;;10.80;;
10731;SDS011;5417;42.686;23.244;2023-02-28T13:17:00;15.70;;;11.37;;
10731;SDS011;5417;42.686;23.244;2023-02-28T13:19:37;15.97;;;9.70;;
10731;SDS011;5417;42.686;23.244;2023-02-28T13:22:17;17.57;;;10.30;;
10731;SDS011;5417;42.686;23.244;2023-02-28T13:24:48;13.50;;;9.27;;
10731;SDS011;5417;42.686;23.244;2023-02-28T13:27:23;19.27;;;9.90;;
10731;SDS011;5417;42.686;23.244;2023-02-28T13:33:25;16.57;;;12.57;;
10731;SDS011;5417;42.686;23.244;2023-02-28T13:36:06;17.03;;;10.33;;
10731;SDS011;5417;42.686;23.244;2023-02-28T13:38:41;17.73;;;11.47;;
10731;SDS011;5417;42.686;23.244;2023-02-28T13:44:20;14.40;;;10.27;;
10731;SDS011;5417;42.686;23.244;2023-02-28T13:52:54;15.40;;;8.93;;
10731;SDS011;5417;42.686;23.244;2023-02-28T13:55:35;16.57;;;9.90;;
10731;SDS011;5417;42.686;23.244;2023-02-28T13:58:23;13.53;;;9.37;;
10731;SDS011;5417;42.686;23.244;2023-02-28T14:07:22;15.87;;;8.50;;
10731;SDS011;5417;42.686;23.244;2023-02-28T14:10:01;19.87;;;9.97;;
10731;SDS011;5417;42.686;23.244;2023-02-28T14:12:59;17.30;;;9.13;;
10731;SDS011;5417;42.686;23.244;2023-02-28T14:15:48;14.00;;;9.20;;
10731;SDS011;5417;42.686;23.244;2023-02-28T14:18:29;15.00;;;9.37;;
10731;SDS011;5417;42.686;23.244;2023-02-28T14:21:14;12.60;;;8.17;;
10731;SDS011;5417;42.686;23.244;2023-02-28T14:33:10;16.27;;;10.07;;
10731;SDS011;5417;42.686;23.244;2023-02-28T14:35:56;13.23;;;8.70;;
10731;SDS011;5417;42.686;23.244;2023-02-28T14:38:42;14.53;;;9.27;;
10731;SDS011;5417;42.686;23.244;2023-02-28T14:41:18;14.40;;;9.57;;
10731;SDS011;5417;42.686;23.244;2023-02-28T14:43:49;12.17;;;9.40;;
10731;SDS011;5417;42.686;23.244;2023-02-28T14:46:26;19.10;;;10.17;;
10731;SDS011;5417;42.686;23.244;2023-02-28T14:49:12;12.20;;;8.97;;
10731;SDS011;5417;42.686;23.244;2023-02-28T14:51:47;14.93;;;8.67;;
10731;SDS011;5417;42.686;23.244;2023-02-28T14:54:29;12.13;;;8.23;;
10731;SDS011;5417;42.686;23.244;2023-02-28T14:56:57;10.50;;;7.50;;
10731;SDS011;5417;42.686;23.244;2023-02-28T14:59:28;15.67;;;8.27;;
10731;SDS011;5417;42.686;23.244;2023-02-28T15:02:20;14.37;;;8.73;;
10731;SDS011;5417;42.686;23.244;2023-02-28T15:05:01;14.23;;;8.60;;
10731;SDS011;5417;42.686;23.244;2023-02-28T15:07:45;18.97;;;10.73;;
10731;SDS011;5417;42.686;23.244;2023-02-28T15:10:23;15.60;;;9.00;;
10731;SDS011;5417;42.686;23.244;2023-02-28T15:12:52;13.70;;;8.60;;
10731;SDS011;5417;42.686;23.244;2023-02-28T15:15:22;13.57;;;8.03;;
10731;SDS011;5417;42.686;23.244;2023-02-28T15:18:02;13.53;;;7.63;;
10731;SDS011;5417;42.686;23.244;2023-02-28T15:20:36;13.73;;;8.33;;
10731;SDS011;5417;42.686;23.244;2023-02-28T15:23:06;15.30;;;8.90;;
10731;SDS011;5417;42.686;23.244;2023-02-28T15:25:35;13.93;;;7.80;;
10731;SDS011;5417;42.686;23.244;2023-02-28T15:28:09;13.93;;;7.97;;
10731;SDS011;5417;42.686;23.244;2023-02-28T15:30:49;12.50;;;7.83;;
10731;SDS011;5417;42.686;23.244;2023-02-28T15:33:22;11.97;;;7.23;;
10731;SDS011;5417;42.686;23.244;2023-02-28T15:35:51;14.87;;;7.77;;
10731;SDS011;5417;42.686;23.244;2023-02-28T15:38:34;13.97;;;8.70;;
10731;SDS011;5417;42.686;23.244;2023-02-28T15:41:20;12.70;;;8.10;;
10731;SDS011;5417;42.686;23.244;2023-02-28T15:46:54;13.60;;;8.20;;
10731;SDS011;5417;42.686;23.244;2023-02-28T15:49:32;12.97;;;8.50;;
10731;SDS011;5417;42.686;23.244;2023-02-28T15:52:11;13.40;;;7.87;;
10731;SDS011;5417;42.686;23.244;2023-02-28T15:54:44;10.03;;;7.20;;
10731;SDS011;5417;42.686;23.244;2023-02-28T15:57:17;14.33;;;9.10;;
10731;SDS011;5417;42.686;23.244;2023-02-28T15:59:51;9.70;;;7.27;;
10731;SDS011;5417;42.686;23.244;2023-02-28T16:02:30;12.60;;;8.23;;
10731;SDS011;5417;42.686;23.244;2023-02-28T16:07:54;9.47;;;7.13;;